createdAt,value
2023-05-04T00:00:11.554Z,14.67
2023-05-04T00:02:39.132Z,14.63
2023-05-04T00:05:07.232Z,14.59
2023-05-04T00:07:34.539Z,14.54
2023-05-04T00:10:01.435Z,14.51
2023-05-04T00:12:28.596Z,14.46
2023-05-04T00:14:55.696Z,14.42
2023-05-04T00:17:22.820Z,14.37
2023-05-04T00:19:49.716Z,14.35
2023-05-04T00:22:16.910Z,14.29
2023-05-04T00:24:46.382Z,14.24
2023-05-04T00:27:13.273Z,14.20
2023-05-04T00:29:40.770Z,14.16
2023-05-04T00:32:07.731Z,14.12
2023-05-04T00:34:34.674Z,14.08
2023-05-04T00:37:01.796Z,14.04
2023-05-04T00:39:29.387Z,14.01
2023-05-04T00:41:56.249Z,13.99
2023-05-04T00:44:25.938Z,13.95
2023-05-04T00:46:53.203Z,13.91
2023-05-04T00:49:21.651Z,13.88
2023-05-04T00:51:50.221Z,13.85
2023-05-04T00:54:20.448Z,13.82
2023-05-04T00:56:48.108Z,13.79
2023-05-04T00:59:14.925Z,13.76
2023-05-04T01:01:42.501Z,13.73
2023-05-04T01:04:09.947Z,13.69
2023-05-04T01:07:00.942Z,13.59
2023-05-04T01:09:49.374Z,13.52
2023-05-04T01:12:29.994Z,13.49
2023-05-04T01:14:57.267Z,13.48
2023-05-04T01:17:24.285Z,13.45
2023-05-04T01:19:53.804Z,13.42
2023-05-04T01:22:21.851Z,13.39
2023-05-04T01:24:55.823Z,13.35
2023-05-04T01:31:04.962Z,13.20
2023-05-04T01:33:32.125Z,13.16
2023-05-04T01:35:59.525Z,13.14
2023-05-04T01:38:26.532Z,13.11
2023-05-04T01:40:53.414Z,13.08
2023-05-04T01:43:20.317Z,13.04
2023-05-04T01:45:47.187Z,13.01
2023-05-04T01:48:14.012Z,12.98
2023-05-04T01:50:41.121Z,12.96
2023-05-04T01:53:08.635Z,12.94
2023-05-04T01:55:35.547Z,12.92
2023-05-04T01:58:02.460Z,12.91
2023-05-04T02:00:29.337Z,12.89
2023-05-04T02:02:58.786Z,12.85
2023-05-04T02:05:26.151Z,12.83
2023-05-04T02:07:52.966Z,12.81
2023-05-04T02:10:19.797Z,12.77
2023-05-04T02:12:47.452Z,12.75
2023-05-04T02:15:17.504Z,12.69
2023-05-04T02:17:44.467Z,12.66
2023-05-04T02:20:15.086Z,12.63
2023-05-04T02:22:46.148Z,12.61
2023-05-04T02:25:12.954Z,12.57
2023-05-04T02:27:42.777Z,12.53
2023-05-04T02:30:14.743Z,12.50
2023-05-04T02:32:41.585Z,12.46
2023-05-04T02:35:09.063Z,12.43
2023-05-04T02:37:35.850Z,12.41
2023-05-04T02:40:04.484Z,12.38
2023-05-04T02:42:32.298Z,12.36
2023-05-04T02:44:59.119Z,12.35
2023-05-04T02:47:26.086Z,12.34
2023-05-04T02:49:52.913Z,12.33
2023-05-04T02:52:19.692Z,12.32
2023-05-04T02:54:46.539Z,12.32
2023-05-04T02:57:13.380Z,12.31
2023-05-04T02:59:40.148Z,12.30
2023-05-04T03:02:07.053Z,12.29
2023-05-04T03:04:34.198Z,12.28
2023-05-04T03:07:01.362Z,12.26
2023-05-04T03:09:28.119Z,12.24
2023-05-04T03:11:55.280Z,12.25
2023-05-04T03:14:22.124Z,12.24
2023-05-04T03:16:49.115Z,12.22
2023-05-04T03:19:18.914Z,12.22
2023-05-04T03:21:46.590Z,12.11
2023-05-04T03:24:14.489Z,12.16
2023-05-04T03:26:41.473Z,12.15
2023-05-04T03:29:08.399Z,12.12
2023-05-04T03:31:35.853Z,12.11
2023-05-04T03:34:03.493Z,12.06
2023-05-04T03:36:30.775Z,12.05
2023-05-04T03:38:58.481Z,12.02
2023-05-04T03:41:25.538Z,12.00
2023-05-04T03:43:52.440Z,11.99
2023-05-04T03:46:19.728Z,11.97
2023-05-04T03:48:46.592Z,11.93
2023-05-04T03:51:15.935Z,11.88
2023-05-04T03:53:44.719Z,11.86
2023-05-04T03:56:13.400Z,11.81
2023-05-04T03:58:40.946Z,11.78
2023-05-04T04:01:08.240Z,11.74
2023-05-04T04:03:36.552Z,11.70
2023-05-04T04:06:03.805Z,11.67
2023-05-04T04:08:33.399Z,11.62
2023-05-04T04:11:00.271Z,11.62
2023-05-04T04:13:27.936Z,11.59
2023-05-04T04:15:55.044Z,11.57
2023-05-04T04:18:24.230Z,11.52
2023-05-04T04:20:51.520Z,11.50
2023-05-04T04:23:19.251Z,11.47
2023-05-04T04:25:46.905Z,11.44
2023-05-04T04:28:14.653Z,11.42
2023-05-04T04:30:41.698Z,11.41
2023-05-04T04:33:10.093Z,11.37
2023-05-04T04:35:37.263Z,11.35
2023-05-04T04:38:04.185Z,11.33
2023-05-04T04:40:31.197Z,11.31
2023-05-04T04:42:58.051Z,11.29
2023-05-04T04:45:24.946Z,11.29
2023-05-04T04:47:51.898Z,11.30
2023-05-04T04:50:19.189Z,11.30
2023-05-04T04:52:46.334Z,11.32
2023-05-04T04:55:15.383Z,11.32
2023-05-04T04:57:42.184Z,11.33
2023-05-04T05:00:10.220Z,11.35
2023-05-04T05:02:37.561Z,11.37
2023-05-04T05:05:04.883Z,11.37
2023-05-04T05:07:32.660Z,11.40
2023-05-04T05:09:59.484Z,11.41
2023-05-04T05:12:26.740Z,11.43
2023-05-04T05:14:53.529Z,11.44
2023-05-04T05:17:21.039Z,11.47
2023-05-04T05:19:48.136Z,11.52
2023-05-04T05:22:15.036Z,11.56
2023-05-04T05:24:42.339Z,11.62
2023-05-04T05:27:09.308Z,11.67
2023-05-04T05:29:37.017Z,11.74
2023-05-04T05:32:04.413Z,11.81
2023-05-04T05:34:31.285Z,11.85
2023-05-04T05:36:58.358Z,11.91
2023-05-04T05:39:25.204Z,11.96
2023-05-04T05:41:57.661Z,12.00
2023-05-04T05:44:24.660Z,12.09
2023-05-04T05:46:51.606Z,12.15
2023-05-04T05:49:18.435Z,12.23
2023-05-04T05:51:45.367Z,12.32
2023-05-04T05:54:12.365Z,12.40
2023-05-04T05:56:39.535Z,12.51
2023-05-04T05:59:06.349Z,12.60
2023-05-04T06:01:33.351Z,12.70
2023-05-04T06:04:00.615Z,12.81
2023-05-04T06:06:27.590Z,12.91
2023-05-04T06:08:54.444Z,13.03
2023-05-04T06:11:21.479Z,13.14
2023-05-04T06:13:48.335Z,13.26
2023-05-04T06:16:15.343Z,13.38
2023-05-04T06:18:42.268Z,13.50
2023-05-04T06:21:09.132Z,13.61
2023-05-04T06:23:36.661Z,13.72
2023-05-04T06:26:10.013Z,13.85
2023-05-04T06:28:36.996Z,13.98
2023-05-04T06:31:03.933Z,14.12
2023-05-04T06:33:31.197Z,14.24
2023-05-04T06:36:01.567Z,14.37
2023-05-04T06:38:28.388Z,14.51
2023-05-04T06:40:55.684Z,14.66
2023-05-04T06:43:22.531Z,14.81
2023-05-04T06:45:49.374Z,14.96
2023-05-04T06:48:17.004Z,15.10
2023-05-04T06:50:45.118Z,15.24
2023-05-04T06:53:12.033Z,15.40
2023-05-04T06:55:38.965Z,15.54
2023-05-04T06:58:06.131Z,15.70
2023-05-04T07:00:33.014Z,15.85
2023-05-04T07:03:00.031Z,16.01
2023-05-04T07:05:26.940Z,16.16
2023-05-04T07:07:53.794Z,16.31
2023-05-04T07:10:20.788Z,16.45
2023-05-04T07:12:49.462Z,16.58
2023-05-04T07:15:16.298Z,16.74
2023-05-04T07:17:43.200Z,16.87
2023-05-04T07:20:11.141Z,17.02
2023-05-04T07:22:38.046Z,17.15
2023-05-04T07:25:05.544Z,17.29
2023-05-04T07:27:32.567Z,17.44
2023-05-04T07:29:59.453Z,17.55
2023-05-04T07:32:26.330Z,17.68
2023-05-04T07:34:53.208Z,17.80
2023-05-04T07:37:20.106Z,17.93
2023-05-04T07:39:46.971Z,18.06
2023-05-04T07:42:14.059Z,18.17
2023-05-04T07:44:41.356Z,18.31
2023-05-04T07:47:08.660Z,18.43
2023-05-04T07:49:35.584Z,18.58
2023-05-04T07:52:08.346Z,18.71
2023-05-04T07:54:35.115Z,18.72
2023-05-04T07:57:03.572Z,18.91
2023-05-04T07:59:33.492Z,19.02
2023-05-04T08:02:00.674Z,19.13
2023-05-04T08:04:27.635Z,19.24
2023-05-04T08:06:54.530Z,19.34
2023-05-04T08:09:21.404Z,19.42
2023-05-04T08:11:51.806Z,19.51
2023-05-04T08:14:18.768Z,19.64
2023-05-04T08:16:47.770Z,19.73
2023-05-04T08:19:14.709Z,19.82
2023-05-04T08:21:41.594Z,19.94
2023-05-04T08:24:09.019Z,20.01
2023-05-04T08:26:39.485Z,20.08
2023-05-04T08:29:07.767Z,20.18
2023-05-04T08:31:35.239Z,20.29
2023-05-04T08:34:03.526Z,20.39
2023-05-04T08:36:30.602Z,20.48
2023-05-04T08:38:57.544Z,20.58
2023-05-04T08:41:24.529Z,20.68
2023-05-04T08:43:52.086Z,20.78
2023-05-04T08:46:19.040Z,20.89
2023-05-04T08:48:46.297Z,20.99
2023-05-04T08:51:15.661Z,21.07
2023-05-04T08:53:46.030Z,21.15
2023-05-04T08:56:14.318Z,21.26
2023-05-04T08:58:50.556Z,21.31
2023-05-04T09:01:19.162Z,21.43
2023-05-04T09:03:47.940Z,21.48
2023-05-04T09:06:19.528Z,21.54
2023-05-04T09:08:46.430Z,21.60
2023-05-04T09:11:13.716Z,21.67
2023-05-04T09:13:42.584Z,21.76
2023-05-04T09:16:09.529Z,21.86
2023-05-04T09:18:54.405Z,21.86
2023-05-04T09:21:30.179Z,21.96
2023-05-04T09:23:57.936Z,22.06
2023-05-04T09:26:32.787Z,22.12
2023-05-04T09:29:16.086Z,22.18
2023-05-04T09:31:52.134Z,22.26
2023-05-04T09:34:22.590Z,22.40
2023-05-04T09:37:03.651Z,22.41
2023-05-04T09:39:30.718Z,22.57
2023-05-04T09:41:57.568Z,22.65
2023-05-04T09:44:26.989Z,22.74
2023-05-04T09:47:00.537Z,22.83
2023-05-04T09:49:37.538Z,22.92
2023-05-04T09:52:06.783Z,23.04
2023-05-04T09:54:36.141Z,23.13
2023-05-04T09:57:15.237Z,23.21
2023-05-04T09:59:42.689Z,23.38
2023-05-04T10:02:21.787Z,23.51
2023-05-04T10:04:57.168Z,23.60
2023-05-04T10:07:24.903Z,23.75
2023-05-04T10:09:53.045Z,23.91
2023-05-04T10:12:19.945Z,24.05
2023-05-04T10:14:47.458Z,24.19
2023-05-04T10:17:40.037Z,24.24
2023-05-04T10:20:44.030Z,24.36
2023-05-04T10:23:47.615Z,24.46
2023-05-04T10:26:44.087Z,24.59
2023-05-04T10:29:28.499Z,24.71
2023-05-04T10:31:59.366Z,24.88
2023-05-04T10:34:32.533Z,24.95
2023-05-04T10:37:01.505Z,25.10
2023-05-04T10:39:31.708Z,25.20
2023-05-04T10:42:08.384Z,25.32
2023-05-04T10:44:53.703Z,25.43
2023-05-04T10:47:50.817Z,25.58
2023-05-04T10:50:19.860Z,25.75
2023-05-04T10:52:53.982Z,25.85
2023-05-04T10:55:22.011Z,25.95
2023-05-04T10:57:55.316Z,26.02
2023-05-04T11:00:24.371Z,26.16
2023-05-04T11:02:52.453Z,26.25
2023-05-04T11:05:20.324Z,26.36
2023-05-04T11:07:50.782Z,26.46
2023-05-04T11:10:27.784Z,26.54
2023-05-04T11:13:05.746Z,26.72
2023-05-04T11:15:52.389Z,26.82
2023-05-04T11:18:31.843Z,26.97
2023-05-04T11:20:59.424Z,27.11
2023-05-04T11:23:28.250Z,27.17
2023-05-04T11:25:55.387Z,27.23
2023-05-04T11:28:38.827Z,27.23
2023-05-04T11:31:15.361Z,27.31
2023-05-04T11:33:51.456Z,27.41
2023-05-04T11:36:19.507Z,27.57
2023-05-04T11:38:47.415Z,27.65
2023-05-04T11:41:14.507Z,27.75
2023-05-04T11:43:44.750Z,27.85
2023-05-04T11:46:12.845Z,27.98
2023-05-04T11:48:41.208Z,28.12
2023-05-04T11:51:08.071Z,28.25
2023-05-04T11:53:39.650Z,28.33
2023-05-04T11:56:08.851Z,28.45
2023-05-04T11:58:36.562Z,28.53
2023-05-04T12:01:07.118Z,28.59
2023-05-04T12:03:48.597Z,28.67
2023-05-04T12:06:32.376Z,28.73
2023-05-04T12:09:05.453Z,28.83
2023-05-04T12:11:32.941Z,28.93
2023-05-04T12:14:13.949Z,28.98
2023-05-04T12:16:42.956Z,29.16
2023-05-04T12:19:12.443Z,29.29
2023-05-04T12:21:53.919Z,29.35
2023-05-04T12:24:27.745Z,29.50
2023-05-04T12:26:54.727Z,29.64
2023-05-04T12:29:21.997Z,29.72
2023-05-04T12:31:48.941Z,29.80
2023-05-04T12:34:15.812Z,29.89
2023-05-04T12:36:44.300Z,29.95
2023-05-04T12:39:11.319Z,30.01
2023-05-04T12:41:38.156Z,30.08
2023-05-04T12:44:05.194Z,30.15
2023-05-04T12:46:32.078Z,30.20
2023-05-04T12:48:58.931Z,30.21
2023-05-04T12:51:26.081Z,30.26
2023-05-04T12:53:52.881Z,30.29
2023-05-04T12:56:19.785Z,30.35
2023-05-04T12:58:46.602Z,30.41
2023-05-04T13:01:13.527Z,30.45
2023-05-04T13:03:40.536Z,30.49
2023-05-04T13:06:07.785Z,30.52
2023-05-04T13:08:34.619Z,30.56
2023-05-04T13:11:01.498Z,30.62
2023-05-04T13:13:29.514Z,30.65
2023-05-04T13:15:57.160Z,30.73
2023-05-04T13:18:27.058Z,30.80
2023-05-04T13:21:00.094Z,30.83
2023-05-04T13:23:26.944Z,30.94
2023-05-04T13:25:54.046Z,31.05
2023-05-04T13:28:21.004Z,31.14
2023-05-04T13:30:48.308Z,31.22
2023-05-04T13:33:28.286Z,31.27
2023-05-04T13:36:01.846Z,31.35
2023-05-04T13:38:28.716Z,31.24
2023-05-04T13:40:56.134Z,31.47
2023-05-04T13:43:23.488Z,31.53
2023-05-04T13:45:51.262Z,31.58
2023-05-04T13:48:18.137Z,31.66
2023-05-04T13:50:45.058Z,31.78
2023-05-04T13:53:11.963Z,31.91
2023-05-04T13:55:38.925Z,32.06
2023-05-04T13:58:05.942Z,32.15
2023-05-04T14:00:33.716Z,32.19
2023-05-04T14:03:00.873Z,32.21
2023-05-04T14:05:27.838Z,32.26
2023-05-04T14:07:54.642Z,32.36
2023-05-04T14:10:24.036Z,32.46
2023-05-04T14:12:50.924Z,32.50
2023-05-04T14:15:22.251Z,32.53
2023-05-04T14:17:52.190Z,32.54
2023-05-04T14:20:21.461Z,32.55
2023-05-04T14:22:48.457Z,32.53
2023-05-04T14:25:15.670Z,32.51
2023-05-04T14:27:43.771Z,32.47
2023-05-04T14:30:11.605Z,32.46
2023-05-04T14:32:38.690Z,32.48
2023-05-04T14:35:12.063Z,32.52
2023-05-04T14:37:40.385Z,32.60
2023-05-04T14:40:09.731Z,32.65
2023-05-04T14:42:37.602Z,32.70
2023-05-04T14:45:06.912Z,32.74
2023-05-04T14:47:37.051Z,32.65
2023-05-04T14:50:07.443Z,32.84
2023-05-04T14:52:34.817Z,32.86
2023-05-04T14:55:06.428Z,32.87
2023-05-04T14:57:33.728Z,32.89
2023-05-04T15:00:00.763Z,32.95
2023-05-04T15:02:27.729Z,32.98
2023-05-04T15:04:54.559Z,33.00
2023-05-04T15:07:21.619Z,33.03
2023-05-04T15:09:48.518Z,33.04
2023-05-04T15:12:15.624Z,33.03
2023-05-04T15:14:42.446Z,33.01
2023-05-04T15:17:09.594Z,33.00
2023-05-04T15:19:40.540Z,32.98
2023-05-04T15:22:07.718Z,33.02
2023-05-04T15:24:34.603Z,33.04
2023-05-04T15:27:02.040Z,33.05
2023-05-04T15:29:29.153Z,33.08
2023-05-04T15:31:56.452Z,33.10
2023-05-04T15:34:23.323Z,33.13
2023-05-04T15:36:50.346Z,33.19
2023-05-04T15:39:17.184Z,33.25
2023-05-04T15:41:44.121Z,33.32
2023-05-04T15:44:11.098Z,33.38
2023-05-04T15:46:38.320Z,33.47
2023-05-04T15:49:05.448Z,33.58
2023-05-04T15:51:32.653Z,33.70
2023-05-04T15:53:59.733Z,33.77
2023-05-04T15:56:26.820Z,33.82
2023-05-04T15:58:53.845Z,33.84
2023-05-04T16:01:20.823Z,33.82
2023-05-04T16:03:47.790Z,33.79
2023-05-04T16:06:15.666Z,33.81
2023-05-04T16:08:42.855Z,33.83
2023-05-04T16:11:10.085Z,33.90
2023-05-04T16:13:37.006Z,33.98
2023-05-04T16:16:05.260Z,34.04
2023-05-04T16:18:32.171Z,34.14
2023-05-04T16:20:59.036Z,34.26
2023-05-04T16:23:28.073Z,34.35
2023-05-04T16:25:57.826Z,34.42
2023-05-04T16:28:24.828Z,34.55
2023-05-04T16:30:51.750Z,34.63
2023-05-04T16:33:19.719Z,34.73
2023-05-04T16:35:46.717Z,34.84
2023-05-04T16:38:13.563Z,35.04
2023-05-04T16:40:42.134Z,35.23
2023-05-04T16:43:10.549Z,35.49
2023-05-04T16:45:38.342Z,35.81
2023-05-04T16:48:06.340Z,36.15
2023-05-04T16:50:33.426Z,36.44
2023-05-04T16:53:00.485Z,36.77
2023-05-04T16:55:27.501Z,37.08
2023-05-04T16:57:58.077Z,37.32
2023-05-04T17:00:25.844Z,37.55
2023-05-04T17:02:53.149Z,37.62
2023-05-04T17:05:21.033Z,37.57
2023-05-04T17:07:48.088Z,37.56
2023-05-04T17:10:15.122Z,37.52
2023-05-04T17:12:42.427Z,37.41
2023-05-04T17:15:12.014Z,37.27
2023-05-04T17:17:38.977Z,36.94
2023-05-04T17:20:09.482Z,36.95
2023-05-04T17:22:36.925Z,36.79
2023-05-04T17:25:04.272Z,36.62
2023-05-04T17:27:31.236Z,36.46
2023-05-04T17:29:58.349Z,36.29
2023-05-04T17:32:25.491Z,36.11
2023-05-04T17:34:52.784Z,35.93
2023-05-04T17:37:19.879Z,35.64
2023-05-04T17:39:47.246Z,35.24
2023-05-04T17:42:16.074Z,34.87
2023-05-04T17:44:43.121Z,34.53
2023-05-04T17:47:10.247Z,34.14
2023-05-04T17:49:37.376Z,33.76
2023-05-04T17:52:04.656Z,33.35
2023-05-04T17:54:31.943Z,32.97
2023-05-04T17:56:59.164Z,32.58
2023-05-04T17:59:28.632Z,32.20
2023-05-04T18:01:55.760Z,31.85
2023-05-04T18:04:25.824Z,31.47
2023-05-04T18:06:53.278Z,31.15
2023-05-04T18:09:20.349Z,30.83
2023-05-04T18:11:50.194Z,30.53
2023-05-04T18:14:21.161Z,30.21
2023-05-04T18:16:51.603Z,29.92
2023-05-04T18:19:28.079Z,29.68
2023-05-04T18:21:58.177Z,29.40
2023-05-04T18:24:25.441Z,29.19
2023-05-04T18:34:08.593Z,28.32
2023-05-04T18:36:52.644Z,28.14
2023-05-04T18:39:20.378Z,27.93
2023-05-04T18:41:47.550Z,27.77
2023-05-04T18:44:17.246Z,27.58
2023-05-04T18:46:51.948Z,27.39
2023-05-04T18:49:19.213Z,27.19
2023-05-04T18:51:46.334Z,27.01
2023-05-04T18:54:17.803Z,26.85
2023-05-04T18:56:47.618Z,26.66
2023-05-04T18:59:14.673Z,26.39
2023-05-04T19:01:42.189Z,26.39
2023-05-04T19:04:09.324Z,26.24
2023-05-04T19:06:36.400Z,26.12
2023-05-04T19:09:03.949Z,26.00
2023-05-04T19:11:31.173Z,25.90
2023-05-04T19:13:58.875Z,25.79
2023-05-04T19:16:28.459Z,25.69
2023-05-04T19:18:55.775Z,25.60
2023-05-04T19:21:22.823Z,25.49
2023-05-04T19:23:49.876Z,25.40
2023-05-04T19:26:17.180Z,25.29
2023-05-04T19:28:44.182Z,25.20
2023-05-04T19:31:11.624Z,25.09
2023-05-04T19:33:48.038Z,24.97
2023-05-04T19:36:17.355Z,24.86
2023-05-04T19:38:44.503Z,24.74
2023-05-04T19:41:11.589Z,24.66
2023-05-04T19:43:38.905Z,24.54
2023-05-04T19:46:11.339Z,24.44
2023-05-04T19:48:39.286Z,24.35
2023-05-04T19:51:06.617Z,24.26
2023-05-04T19:53:33.672Z,24.18
2023-05-04T19:56:00.982Z,24.06
2023-05-04T19:58:30.341Z,23.98
2023-05-04T20:01:00.847Z,23.88
2023-05-04T20:03:28.009Z,23.78
2023-05-04T20:05:55.728Z,23.67
2023-05-04T20:08:22.732Z,23.58
2023-05-04T20:10:49.677Z,23.50
2023-05-04T20:13:16.794Z,23.40
2023-05-04T20:15:45.088Z,23.30
2023-05-04T20:18:12.170Z,23.21
2023-05-04T20:20:39.134Z,23.12
2023-05-04T20:23:06.196Z,23.03
2023-05-04T20:25:38.897Z,22.96
2023-05-04T20:28:06.066Z,22.86
2023-05-04T20:30:33.032Z,22.77
2023-05-04T20:33:00.175Z,22.69
2023-05-04T20:35:27.392Z,22.62
2023-05-04T20:37:54.489Z,22.53
2023-05-04T20:40:22.516Z,22.42
2023-05-04T20:42:52.421Z,22.34
2023-05-04T20:45:19.327Z,22.13
2023-05-04T20:47:46.644Z,22.14
2023-05-04T20:50:13.747Z,22.05
2023-05-04T20:52:40.967Z,21.97
2023-05-04T20:55:08.406Z,21.88
2023-05-04T20:57:35.566Z,21.79
2023-05-04T21:00:03.669Z,21.70
2023-05-04T21:02:31.291Z,21.62
2023-05-04T21:04:58.526Z,21.53
2023-05-04T21:07:25.588Z,21.44
2023-05-04T21:09:58.654Z,21.32
2023-05-04T21:12:26.092Z,21.27
2023-05-04T21:14:53.293Z,21.19
2023-05-04T21:17:20.631Z,21.11
2023-05-04T21:19:47.703Z,21.05
2023-05-04T21:22:17.770Z,20.98
2023-05-04T21:24:46.874Z,20.90
2023-05-04T21:27:14.180Z,20.84
2023-05-04T21:29:41.337Z,20.76
2023-05-04T21:32:08.367Z,20.70
2023-05-04T21:34:35.597Z,20.65
2023-05-04T21:37:03.686Z,20.60
2023-05-04T21:39:31.615Z,20.54
2023-05-04T21:42:04.240Z,20.50
2023-05-04T21:44:34.646Z,20.43
2023-05-04T21:47:05.261Z,20.35
2023-05-04T21:49:32.348Z,20.32
2023-05-04T21:51:59.510Z,20.28
2023-05-04T21:54:26.775Z,20.23
2023-05-04T21:56:54.214Z,20.18
2023-05-04T21:59:21.145Z,20.14
2023-05-04T22:01:48.152Z,20.11
2023-05-04T22:04:15.116Z,20.07
2023-05-04T22:06:42.422Z,20.06
2023-05-04T22:09:09.451Z,20.04
2023-05-04T22:11:36.952Z,20.02
2023-05-04T22:14:06.818Z,20.01
2023-05-04T22:16:33.893Z,20.01
2023-05-04T22:19:01.408Z,19.99
2023-05-04T22:21:28.565Z,19.99
2023-05-04T22:23:59.399Z,19.95
2023-05-04T22:26:26.471Z,19.96
2023-05-04T22:28:53.538Z,19.95
2023-05-04T22:31:21.037Z,19.94
2023-05-04T22:33:47.957Z,19.92
2023-05-04T22:36:14.888Z,19.90
2023-05-04T22:38:41.920Z,19.89
2023-05-04T22:41:09.072Z,19.88
2023-05-04T22:43:36.340Z,19.86
2023-05-04T22:46:03.495Z,19.83
2023-05-04T22:48:32.532Z,19.82
2023-05-04T22:51:01.317Z,19.79
2023-05-04T22:53:28.233Z,19.77
2023-05-04T22:55:55.509Z,19.75
2023-05-04T22:58:23.604Z,19.71
2023-05-04T23:00:50.845Z,19.69
2023-05-04T23:03:17.800Z,19.66
2023-05-04T23:05:45.141Z,19.65
2023-05-04T23:08:12.445Z,19.62
2023-05-04T23:10:43.757Z,19.60
2023-05-04T23:13:10.971Z,19.56
2023-05-04T23:15:37.968Z,19.51
2023-05-04T23:18:05.770Z,19.48
2023-05-04T23:20:33.571Z,19.46
2023-05-04T23:23:00.728Z,19.43
2023-05-04T23:25:27.608Z,19.40
2023-05-04T23:27:54.801Z,19.36
2023-05-04T23:30:21.726Z,19.32
2023-05-04T23:32:48.753Z,19.31
2023-05-04T23:35:15.726Z,19.26
2023-05-04T23:37:42.651Z,19.22
2023-05-04T23:40:10.428Z,19.18
2023-05-04T23:42:37.654Z,19.12
2023-05-04T23:45:08.187Z,19.06
2023-05-04T23:47:35.181Z,19.03
2023-05-04T23:50:02.139Z,18.98
2023-05-04T23:52:29.553Z,18.94
2023-05-04T23:54:56.470Z,18.90
2023-05-04T23:57:23.390Z,18.85
2023-05-04T23:59:50.267Z,18.80
